Time;durP1;ratioP1;P1;durP2;ratioP2;P2;SDS_P1;SDS_P2;PMS_P1;PMS_P2;Temp;Humidity;BMP_temperature;BMP_pressure;BME280_temperature;BME280_humidity;BME280_pressure;Samples;Min_cycle;Max_cycle;Signal;HPM_P1;HPM_P2
2023/06/29 00:00:14;;;;;;;18.67;14.85;;;21.30;99.90;;;;;;4861376;29;20061;-82
2023/06/29 00:02:41;;;;;;;20.20;15.80;;;21.40;99.90;;;;;;4861205;29;20033;-82
2023/06/29 00:05:08;;;;;;;25.80;15.70;;;21.30;99.90;;;;;;4860514;29;20045;-82
2023/06/29 00:07:34;;;;;;;21.58;15.55;;;21.30;99.90;;;;;;4861223;29;20033;-82
2023/06/29 00:10:00;;;;;;;23.58;15.80;;;21.30;99.90;;;;;;4860639;29;20033;-82
2023/06/29 00:12:27;;;;;;;19.17;15.15;;;21.30;99.90;;;;;;4860779;29;20394;-82
2023/06/29 00:14:52;;;;;;;23.27;15.15;;;21.30;99.90;;;;;;4860976;29;20083;-82
2023/06/29 00:17:20;;;;;;;17.30;14.63;;;21.20;99.90;;;;;;4860625;29;20025;-82
2023/06/29 00:19:49;;;;;;;18.95;14.68;;;21.40;99.90;;;;;;4860649;29;20033;-82
2023/06/29 00:22:15;;;;;;;22.17;15.73;;;21.30;99.90;;;;;;4860797;29;20030;-83
2023/06/29 00:24:44;;;;;;;24.65;16.25;;;21.30;99.90;;;;;;4860224;29;20132;-84
2023/06/29 00:27:13;;;;;;;20.20;15.85;;;21.30;99.90;;;;;;4860718;29;20025;-83
2023/06/29 00:29:42;;;;;;;20.00;15.00;;;21.30;99.90;;;;;;4860989;29;20059;-82
2023/06/29 00:32:11;;;;;;;21.77;15.63;;;21.30;99.90;;;;;;4860003;29;20397;-82
2023/06/29 00:34:37;;;;;;;20.70;15.70;;;21.30;99.90;;;;;;4860203;29;20049;-82
2023/06/29 00:37:03;;;;;;;24.33;15.50;;;21.30;99.90;;;;;;4860218;29;20117;-83
2023/06/29 00:39:28;;;;;;;21.50;15.77;;;21.80;99.90;;;;;;4860103;29;20034;-83
2023/06/29 00:41:55;;;;;;;22.52;15.70;;;21.30;99.90;;;;;;4860534;29;20029;-83
2023/06/29 00:44:21;;;;;;;26.92;14.77;;;21.30;99.90;;;;;;4859484;29;20073;-83
2023/06/29 00:46:48;;;;;;;25.38;16.55;;;21.30;99.90;;;;;;4859631;29;20026;-83
2023/06/29 00:49:14;;;;;;;20.58;16.08;;;21.30;99.90;;;;;;4860515;29;20038;-83
2023/06/29 00:51:39;;;;;;;20.23;16.02;;;21.40;99.90;;;;;;4860585;29;20498;-83
2023/06/29 00:54:05;;;;;;;27.23;15.98;;;21.60;99.90;;;;;;4859584;29;20042;-83
2023/06/29 00:56:32;;;;;;;21.40;15.73;;;21.60;99.90;;;;;;4860228;29;20025;-83
2023/06/29 00:58:58;;;;;;;24.45;16.15;;;21.30;99.90;;;;;;4860261;29;20037;-83
2023/06/29 01:01:23;;;;;;;20.58;17.23;;;21.30;99.90;;;;;;4859648;29;20515;-83
2023/06/29 01:03:49;;;;;;;29.92;17.10;;;21.30;99.90;;;;;;4859934;29;20052;-83
2023/06/29 01:06:19;;;;;;;21.60;17.02;;;21.30;99.90;;;;;;4860158;29;20037;-83
2023/06/29 01:08:47;;;;;;;20.23;16.07;;;21.30;99.90;;;;;;4859886;29;20034;-83
2023/06/29 01:11:14;;;;;;;23.85;16.70;;;21.30;99.90;;;;;;4860322;29;20108;-83
2023/06/29 01:13:42;;;;;;;22.08;16.70;;;21.30;99.90;;;;;;4859468;29;20471;-82
2023/06/29 01:16:09;;;;;;;25.63;17.10;;;21.20;99.90;;;;;;4859948;29;20451;-82
2023/06/29 01:18:36;;;;;;;21.23;16.70;;;21.80;99.90;;;;;;4860220;29;20162;-82
2023/06/29 01:21:02;;;;;;;22.63;16.65;;;21.50;99.90;;;;;;4859135;29;20531;-82
2023/06/29 01:23:36;;;;;;;22.92;18.13;;;21.20;99.90;;;;;;4859973;29;20129;-83
2023/06/29 01:26:05;;;;;;;27.42;18.50;;;22.10;99.90;;;;;;4859779;29;20368;-82
2023/06/29 01:28:32;;;;;;;22.77;17.38;;;22.00;99.90;;;;;;4859539;29;20034;-82
2023/06/29 01:31:06;;;;;;;23.98;18.58;;;21.30;99.90;;;;;;4859791;29;20030;-83
2023/06/29 01:33:33;;;;;;;23.50;17.63;;;22.10;99.90;;;;;;4859993;29;20021;-83
2023/06/29 01:36:06;;;;;;;24.60;18.60;;;21.20;99.90;;;;;;4859047;29;20033;-83
2023/06/29 01:38:37;;;;;;;27.15;19.00;;;21.30;99.90;;;;;;4860001;29;20037;-84
2023/06/29 01:41:06;;;;;;;21.30;17.02;;;21.20;99.90;;;;;;4859953;29;20112;-83
2023/06/29 01:43:33;;;;;;;25.58;17.90;;;21.30;99.90;;;;;;4858944;29;20048;-82
2023/06/29 01:45:59;;;;;;;26.10;18.35;;;21.20;99.90;;;;;;4859834;29;20064;-83
2023/06/29 01:48:26;;;;;;;22.60;17.95;;;21.20;99.90;;;;;;4863508;29;20428;-82
2023/06/29 01:50:51;;;;;;;24.70;18.70;;;21.30;99.90;;;;;;4862567;29;20030;-83
2023/06/29 01:53:17;;;;;;;22.98;18.00;;;21.20;99.90;;;;;;4863914;29;20497;-83
2023/06/29 01:55:43;;;;;;;24.98;18.35;;;21.20;99.90;;;;;;4863662;29;20541;-83
2023/06/29 01:58:10;;;;;;;25.17;18.05;;;21.20;99.90;;;;;;4862698;29;20416;-83
2023/06/29 02:00:36;;;;;;;28.55;19.15;;;21.20;99.90;;;;;;4863397;29;20104;-83
2023/06/29 02:03:01;;;;;;;25.88;19.10;;;21.20;99.90;;;;;;4862466;29;20046;-83
2023/06/29 02:05:27;;;;;;;26.17;19.20;;;21.20;99.90;;;;;;4863494;29;20569;-83
2023/06/29 02:07:53;;;;;;;25.63;18.58;;;21.20;99.90;;;;;;4863202;29;20035;-83
2023/06/29 02:10:18;;;;;;;26.42;18.58;;;21.20;99.90;;;;;;4862578;29;20021;-83
2023/06/29 02:12:44;;;;;;;27.48;18.70;;;21.10;99.90;;;;;;4863227;29;20022;-83
2023/06/29 02:15:10;;;;;;;23.63;18.85;;;21.20;99.90;;;;;;4863413;29;20037;-83
2023/06/29 02:17:36;;;;;;;26.67;18.77;;;21.20;99.90;;;;;;4862595;29;20040;-83
2023/06/29 02:20:01;;;;;;;29.38;19.08;;;21.20;99.90;;;;;;4862555;29;20029;-83
2023/06/29 02:22:27;;;;;;;25.52;18.02;;;21.20;99.90;;;;;;4862649;29;20025;-83
2023/06/29 02:24:52;;;;;;;25.77;18.65;;;21.90;99.90;;;;;;4861979;29;20096;-83
2023/06/29 02:27:18;;;;;;;29.90;17.98;;;21.20;99.90;;;;;;4862810;29;20036;-82
2023/06/29 02:29:43;;;;;;;26.75;19.73;;;21.20;99.90;;;;;;4863086;29;20069;-83
2023/06/29 02:32:09;;;;;;;24.77;19.00;;;21.20;99.90;;;;;;4862258;29;20025;-82
2023/06/29 02:34:35;;;;;;;22.60;18.00;;;21.20;99.90;;;;;;4862765;29;20124;-83
2023/06/29 02:37:00;;;;;;;28.55;18.15;;;21.10;99.90;;;;;;4862745;29;20104;-83
2023/06/29 02:39:26;;;;;;;25.55;18.65;;;21.10;99.90;;;;;;4862096;29;20398;-83
2023/06/29 02:42:12;;;;;;;25.63;19.02;;;21.80;99.90;;;;;;4862312;29;20552;-83
2023/06/29 02:44:37;;;;;;;26.77;20.50;;;21.20;99.90;;;;;;4862228;29;20049;-83
2023/06/29 02:47:03;;;;;;;22.98;19.35;;;21.20;99.90;;;;;;4861693;29;20562;-83
2023/06/29 02:49:29;;;;;;;28.55;20.35;;;21.20;99.90;;;;;;4862621;29;20518;-83
2023/06/29 02:51:54;;;;;;;27.13;20.27;;;21.20;99.90;;;;;;4862308;29;20028;-83
2023/06/29 02:54:20;;;;;;;28.73;19.77;;;21.20;99.90;;;;;;4861806;29;20371;-83
2023/06/29 02:56:45;;;;;;;28.08;19.27;;;21.20;99.90;;;;;;4862553;29;20036;-82
2023/06/29 02:59:11;;;;;;;27.35;19.20;;;21.20;99.90;;;;;;4861433;29;20158;-83
2023/06/29 03:01:36;;;;;;;32.55;20.55;;;21.20;99.90;;;;;;4862514;29;20482;-83
2023/06/29 03:04:02;;;;;;;30.40;20.48;;;21.10;99.90;;;;;;4861790;29;20402;-83
2023/06/29 03:06:28;;;;;;;27.30;21.10;;;21.10;99.90;;;;;;4861674;29;20500;-83
2023/06/29 03:08:53;;;;;;;34.42;22.60;;;21.30;99.90;;;;;;4861933;29;20036;-83
2023/06/29 03:11:19;;;;;;;35.30;21.23;;;21.10;99.90;;;;;;4862227;29;20061;-83
2023/06/29 03:13:45;;;;;;;34.50;22.05;;;21.10;99.90;;;;;;4861467;29;20032;-83
2023/06/29 03:16:11;;;;;;;31.30;22.27;;;21.20;99.90;;;;;;4862125;29;20049;-83
2023/06/29 03:18:37;;;;;;;31.17;21.15;;;21.10;99.90;;;;;;4862041;29;20112;-83
2023/06/29 03:21:03;;;;;;;38.42;21.98;;;21.00;99.90;;;;;;4860839;29;20125;-82
2023/06/29 03:23:28;;;;;;;32.15;21.80;;;21.10;99.90;;;;;;4861714;29;20097;-83
2023/06/29 03:25:54;;;;;;;30.38;21.67;;;21.10;99.90;;;;;;4861755;29;20078;-83
2023/06/29 03:28:20;;;;;;;39.53;23.15;;;21.10;99.90;;;;;;4861379;29;20538;-83
2023/06/29 03:30:45;;;;;;;33.28;23.65;;;21.10;99.90;;;;;;4861354;29;20090;-83
2023/06/29 03:33:11;;;;;;;34.78;23.15;;;21.10;99.90;;;;;;4861950;29;20394;-83
2023/06/29 03:35:36;;;;;;;30.48;22.00;;;21.20;99.90;;;;;;4861147;29;20025;-83
2023/06/29 03:38:07;;;;;;;32.20;23.08;;;21.20;99.90;;;;;;4861436;29;20032;-82
2023/06/29 03:40:32;;;;;;;36.05;24.23;;;21.10;99.90;;;;;;4862012;29;20041;-83
2023/06/29 03:42:58;;;;;;;30.15;22.02;;;21.20;99.90;;;;;;4860457;29;20041;-83
2023/06/29 03:45:24;;;;;;;36.88;23.25;;;21.20;99.90;;;;;;4861841;29;20059;-83
2023/06/29 03:47:49;;;;;;;37.50;24.30;;;21.00;99.90;;;;;;4861369;29;20030;-83
2023/06/29 03:50:15;;;;;;;37.83;24.73;;;21.00;99.90;;;;;;4860865;29;20108;-83
2023/06/29 03:52:40;;;;;;;30.75;22.35;;;21.00;99.90;;;;;;4861529;29;20029;-83
2023/06/29 03:55:07;;;;;;;34.35;23.65;;;21.10;99.90;;;;;;4861468;29;20073;-83
2023/06/29 03:57:33;;;;;;;32.95;23.23;;;20.90;99.90;;;;;;4860753;29;20060;-83
2023/06/29 03:59:59;;;;;;;40.70;25.15;;;21.00;99.90;;;;;;4861026;29;20061;-83
2023/06/29 04:02:24;;;;;;;31.33;21.92;;;21.00;99.90;;;;;;4860629;29;20026;-83
2023/06/29 04:04:50;;;;;;;37.03;24.52;;;20.90;99.90;;;;;;4860970;29;20093;-83
2023/06/29 04:07:15;;;;;;;33.60;23.98;;;21.00;99.90;;;;;;4860951;29;20044;-83
2023/06/29 04:09:41;;;;;;;36.03;23.48;;;21.00;99.90;;;;;;4859937;29;20071;-83
2023/06/29 04:12:07;;;;;;;35.70;24.10;;;21.10;99.90;;;;;;4860687;29;20057;-83
2023/06/29 04:14:32;;;;;;;35.05;23.73;;;21.00;99.90;;;;;;4860609;29;20078;-83
2023/06/29 04:16:58;;;;;;;32.85;23.95;;;21.00;99.90;;;;;;4860138;29;20105;-83
2023/06/29 04:19:24;;;;;;;34.67;24.13;;;21.00;99.90;;;;;;4861006;29;20483;-83
2023/06/29 04:21:49;;;;;;;35.42;23.90;;;21.00;99.90;;;;;;4860698;29;20070;-83
2023/06/29 04:24:15;;;;;;;36.00;24.00;;;20.90;99.90;;;;;;4860218;29;20601;-83
2023/06/29 04:26:41;;;;;;;31.60;23.02;;;21.10;99.90;;;;;;4860781;29;20041;-84
2023/06/29 04:29:06;;;;;;;34.42;23.02;;;21.00;99.90;;;;;;4860554;29;20436;-83
2023/06/29 04:31:33;;;;;;;34.80;23.30;;;20.90;99.90;;;;;;4859946;29;20376;-83
2023/06/29 04:33:58;;;;;;;32.55;23.65;;;21.00;99.90;;;;;;4860612;29;20044;-83
2023/06/29 04:36:25;;;;;;;31.02;23.08;;;21.00;99.90;;;;;;4860669;29;20026;-83
2023/06/29 04:38:51;;;;;;;33.10;22.95;;;21.10;99.90;;;;;;4860005;29;20034;-83
2023/06/29 04:41:16;;;;;;;35.30;23.67;;;21.00;99.90;;;;;;4860549;29;20475;-83
2023/06/29 04:43:42;;;;;;;32.40;23.42;;;21.00;99.90;;;;;;4860395;29;20049;-83
2023/06/29 04:46:08;;;;;;;33.17;23.65;;;21.20;99.90;;;;;;4859881;29;20148;-83
2023/06/29 04:48:36;;;;;;;32.78;22.15;;;21.10;99.90;;;;;;4860451;29;20085;-83
2023/06/29 04:51:06;;;;;;;31.95;23.27;;;20.90;99.90;;;;;;4860247;29;20025;-83
2023/06/29 04:53:35;;;;;;;36.20;22.95;;;20.90;99.90;;;;;;4859826;29;20065;-83
2023/06/29 04:56:04;;;;;;;32.55;22.13;;;20.90;99.90;;;;;;4860162;29;20471;-82
2023/06/29 04:58:30;;;;;;;36.47;24.02;;;21.00;99.90;;;;;;4860333;29;20120;-82
2023/06/29 05:00:56;;;;;;;36.72;23.38;;;20.90;99.90;;;;;;4859415;29;20105;-83
2023/06/29 05:03:26;;;;;;;37.10;24.77;;;20.90;99.90;;;;;;4860309;29;20045;-82
2023/06/29 05:05:51;;;;;;;35.03;23.95;;;20.90;99.90;;;;;;4859546;29;20022;-82
2023/06/29 05:08:17;;;;;;;30.67;23.80;;;20.80;99.90;;;;;;4860198;29;20037;-82
2023/06/29 05:10:43;;;;;;;35.38;22.55;;;20.80;99.90;;;;;;4860185;29;20097;-82
2023/06/29 05:13:09;;;;;;;32.10;22.65;;;20.90;99.90;;;;;;4859437;29;20487;-83
2023/06/29 05:15:34;;;;;;;34.55;23.83;;;20.90;99.90;;;;;;4860181;29;20025;-83
2023/06/29 05:18:00;;;;;;;31.67;22.75;;;20.90;99.90;;;;;;4859886;29;20036;-82
2023/06/29 05:20:26;;;;;;;34.03;23.45;;;20.90;99.90;;;;;;4859608;29;20037;-83
2023/06/29 05:22:51;;;;;;;32.38;21.90;;;20.90;99.90;;;;;;4859781;29;20033;-83
2023/06/29 05:25:17;;;;;;;30.90;22.63;;;20.90;99.90;;;;;;4859972;29;20093;-83
2023/06/29 05:27:42;;;;;;;29.98;22.25;;;20.90;99.90;;;;;;4859675;29;20496;-83
2023/06/29 05:30:09;;;;;;;29.73;22.65;;;20.80;99.90;;;;;;4859813;29;20117;-83
2023/06/29 05:32:35;;;;;;;27.90;21.17;;;20.80;99.90;;;;;;4859818;29;20033;-83
2023/06/29 05:35:01;;;;;;;32.63;23.15;;;20.80;99.90;;;;;;4859470;29;20037;-83
2023/06/29 05:37:27;;;;;;;32.90;22.67;;;20.80;99.90;;;;;;4860172;29;20036;-82
2023/06/29 05:39:54;;;;;;;32.33;23.40;;;20.80;99.90;;;;;;4860062;29;20053;-83
2023/06/29 05:42:20;;;;;;;30.52;22.73;;;20.80;99.90;;;;;;4859186;29;20040;-82
2023/06/29 05:44:45;;;;;;;30.88;21.70;;;20.80;99.90;;;;;;4859687;29;20033;-82
2023/06/29 05:47:11;;;;;;;35.28;24.52;;;20.80;99.90;;;;;;4859850;29;20025;-82
2023/06/29 05:49:37;;;;;;;35.75;25.25;;;20.80;99.90;;;;;;4859259;29;20061;-82
2023/06/29 05:52:02;;;;;;;36.33;25.23;;;20.80;99.90;;;;;;4859527;29;20423;-82
2023/06/29 05:54:28;;;;;;;33.33;23.95;;;20.80;99.90;;;;;;4859770;29;20029;-83
2023/06/29 05:56:54;;;;;;;37.30;24.55;;;20.80;99.90;;;;;;4858980;29;20030;-82
2023/06/29 05:59:19;;;;;;;39.28;25.90;;;20.90;99.90;;;;;;4859614;29;20033;-82
2023/06/29 06:01:45;;;;;;;40.05;26.48;;;20.80;99.90;;;;;;4859520;29;20570;-83
2023/06/29 06:04:10;;;;;;;40.45;24.52;;;20.70;99.90;;;;;;4859356;29;20458;-83
2023/06/29 06:06:36;;;;;;;37.70;25.92;;;20.70;99.90;;;;;;4859605;29;20036;-83
2023/06/29 06:09:02;;;;;;;40.72;26.23;;;20.80;99.90;;;;;;4858870;29;20034;-83
2023/06/29 06:11:28;;;;;;;37.88;25.85;;;20.60;99.90;;;;;;4859759;29;20029;-83
2023/06/29 06:13:54;;;;;;;35.85;25.85;;;20.60;99.90;;;;;;4859501;29;20100;-83
2023/06/29 06:16:20;;;;;;;37.78;25.52;;;20.60;99.90;;;;;;4859013;29;20796;-83
2023/06/29 06:18:46;;;;;;;35.10;24.60;;;20.60;99.90;;;;;;4859438;29;20034;-83
2023/06/29 06:21:12;;;;;;;36.40;25.70;;;20.70;99.90;;;;;;4859316;29;20475;-83
2023/06/29 06:23:37;;;;;;;36.47;25.35;;;20.60;99.90;;;;;;4858659;29;20091;-83
2023/06/29 06:26:03;;;;;;;40.65;25.95;;;20.60;99.90;;;;;;4859302;29;20022;-83
2023/06/29 06:28:28;;;;;;;37.40;24.80;;;20.60;99.90;;;;;;4859688;29;20104;-83
2023/06/29 06:30:54;;;;;;;47.25;24.80;;;20.60;99.90;;;;;;4858419;29;20467;-83
2023/06/29 06:33:20;;;;;;;36.72;25.80;;;20.60;99.90;;;;;;4860569;29;20026;-82
2023/06/29 06:35:45;;;;;;;38.47;25.75;;;21.50;99.90;;;;;;4862806;29;20030;-83
2023/06/29 06:38:11;;;;;;;37.30;24.70;;;20.60;99.90;;;;;;4862281;29;20398;-83
2023/06/29 06:40:36;;;;;;;35.92;25.48;;;21.50;99.90;;;;;;4862730;29;20561;-83
2023/06/29 06:43:02;;;;;;;35.83;25.13;;;20.70;99.90;;;;;;4862209;29;20051;-83
2023/06/29 06:45:28;;;;;;;36.42;25.15;;;20.80;99.90;;;;;;4861754;29;20021;-83
2023/06/29 06:47:53;;;;;;;35.90;25.25;;;20.80;99.90;;;;;;4862664;29;20036;-83
2023/06/29 06:50:20;;;;;;;36.70;25.25;;;20.70;99.90;;;;;;4862504;29;20029;-83
2023/06/29 06:52:46;;;;;;;36.08;25.85;;;20.80;99.90;;;;;;4861599;29;20089;-83
2023/06/29 06:55:12;;;;;;;37.63;26.45;;;20.80;99.90;;;;;;4862440;29;20026;-83
2023/06/29 06:57:38;;;;;;;38.60;26.88;;;20.80;99.90;;;;;;4862054;29;20035;-83
2023/06/29 07:00:05;;;;;;;37.85;25.00;;;20.70;99.90;;;;;;4861227;29;20025;-83
2023/06/29 07:02:31;;;;;;;37.85;26.30;;;20.70;99.90;;;;;;4862522;29;20053;-83
2023/06/29 07:04:57;;;;;;;35.08;24.58;;;20.70;99.90;;;;;;4862247;29;20471;-83
2023/06/29 07:07:22;;;;;;;37.78;26.98;;;20.70;99.90;;;;;;4861461;29;20113;-83
2023/06/29 07:09:48;;;;;;;34.88;26.33;;;20.60;99.90;;;;;;4862183;29;20037;-83
2023/06/29 07:12:13;;;;;;;33.15;25.38;;;20.80;99.90;;;;;;4861956;29;20026;-83
2023/06/29 07:14:39;;;;;;;35.67;26.55;;;20.70;99.90;;;;;;4861893;29;20527;-83
2023/06/29 07:17:05;;;;;;;41.33;27.60;;;20.80;99.90;;;;;;4861827;29;20022;-83
2023/06/29 07:19:31;;;;;;;37.72;26.38;;;20.80;99.90;;;;;;4861572;29;20098;-83
2023/06/29 07:21:56;;;;;;;38.78;28.17;;;21.50;99.90;;;;;;4861983;29;20029;-83
2023/06/29 07:24:22;;;;;;;35.38;25.52;;;20.80;99.90;;;;;;4861658;29;20148;-83
2023/06/29 07:26:48;;;;;;;37.63;27.00;;;20.90;99.90;;;;;;4861010;29;20030;-83
2023/06/29 07:29:14;;;;;;;41.67;28.90;;;20.90;99.90;;;;;;4861955;29;20034;-83
2023/06/29 07:31:40;;;;;;;43.13;29.17;;;20.90;99.90;;;;;;4861950;29;20116;-83
2023/06/29 07:34:05;;;;;;;37.00;27.67;;;20.90;99.90;;;;;;4860876;29;20125;-83
2023/06/29 07:36:31;;;;;;;39.80;27.88;;;21.00;99.90;;;;;;4861870;29;20065;-83
2023/06/29 07:38:57;;;;;;;39.70;28.27;;;21.00;99.90;;;;;;4861426;29;20041;-83
2023/06/29 07:41:23;;;;;;;41.63;29.05;;;21.00;99.90;;;;;;4861052;29;20058;-84
2023/06/29 07:43:53;;;;;;;45.17;30.48;;;21.00;99.90;;;;;;4861240;29;20089;-83
2023/06/29 07:46:18;;;;;;;43.67;29.50;;;21.00;99.90;;;;;;4861476;29;20470;-83
2023/06/29 07:48:44;;;;;;;40.33;30.08;;;21.00;99.90;;;;;;4860789;29;20036;-83
2023/06/29 07:51:10;;;;;;;44.55;31.77;;;21.00;99.90;;;;;;4861282;29;20397;-83
2023/06/29 07:53:36;;;;;;;42.10;29.88;;;20.90;99.90;;;;;;4861250;29;20034;-83
2023/06/29 07:56:02;;;;;;;43.40;30.88;;;21.00;99.90;;;;;;4860484;29;20025;-83
2023/06/29 07:58:27;;;;;;;44.88;31.92;;;21.00;99.90;;;;;;4861322;29;20033;-83
2023/06/29 08:00:54;;;;;;;45.15;32.15;;;21.20;99.90;;;;;;4860938;29;20032;-83
2023/06/29 08:03:20;;;;;;;43.90;30.42;;;21.10;99.90;;;;;;4860431;29;20124;-83
2023/06/29 08:05:46;;;;;;;45.53;31.42;;;21.00;99.90;;;;;;4861115;29;20137;-83
2023/06/29 08:08:12;;;;;;;36.20;28.40;;;21.00;99.90;;;;;;4861344;29;20116;-83
2023/06/29 08:10:38;;;;;;;39.97;28.98;;;21.00;99.90;;;;;;4860360;29;20045;-83
2023/06/29 08:13:03;;;;;;;35.83;27.77;;;21.10;99.90;;;;;;4860920;29;20053;-82
2023/06/29 08:15:29;;;;;;;40.72;28.60;;;21.10;99.90;;;;;;4861136;29;20037;-83
2023/06/29 08:17:55;;;;;;;36.58;27.95;;;21.10;99.90;;;;;;4860373;29;20068;-83
2023/06/29 08:20:22;;;;;;;43.55;28.73;;;21.10;99.90;;;;;;4860762;29;20025;-83
2023/06/29 08:22:48;;;;;;;39.60;28.35;;;21.10;99.90;;;;;;4859892;29;20483;-83
2023/06/29 08:25:14;;;;;;;35.50;26.75;;;21.20;99.90;;;;;;4860938;29;20053;-83
2023/06/29 08:27:41;;;;;;;31.55;25.23;;;21.20;99.90;;;;;;4860748;29;20029;-83
2023/06/29 08:30:07;;;;;;;35.15;27.45;;;21.20;99.90;;;;;;4860118;29;20041;-83
2023/06/29 08:32:33;;;;;;;33.85;25.65;;;21.20;99.90;;;;;;4860467;29;20068;-83
2023/06/29 08:34:59;;;;;;;34.63;26.13;;;21.40;99.90;;;;;;4860750;29;20068;-83
2023/06/29 08:37:24;;;;;;;35.30;25.83;;;21.30;99.90;;;;;;4860094;29;20025;-83
2023/06/29 08:39:50;;;;;;;38.92;25.92;;;21.40;99.90;;;;;;4860405;29;20050;-83
2023/06/29 08:42:17;;;;;;;35.65;26.13;;;21.30;99.90;;;;;;4860475;29;20037;-83
2023/06/29 08:44:42;;;;;;;34.03;25.08;;;21.40;99.90;;;;;;4860233;29;20408;-83
2023/06/29 08:47:11;;;;;;;37.80;25.95;;;21.30;99.90;;;;;;4860091;29;20125;-83
2023/06/29 08:49:38;;;;;;;35.35;25.75;;;21.40;99.90;;;;;;4860563;29;20033;-83
2023/06/29 08:52:06;;;;;;;37.20;25.25;;;21.40;99.90;;;;;;4859690;29;20025;-83
2023/06/29 08:54:32;;;;;;;30.73;24.65;;;21.40;99.90;;;;;;4860597;29;20109;-83
2023/06/29 08:57:06;;;;;;;31.55;23.60;;;21.30;99.90;;;;;;4859694;29;20030;-83
2023/06/29 08:59:33;;;;;;;35.47;24.45;;;21.40;99.90;;;;;;4859906;29;20026;-83
2023/06/29 09:01:59;;;;;;;28.33;22.88;;;21.40;99.90;;;;;;4859947;29;20502;-83
2023/06/29 09:04:25;;;;;;;28.38;22.90;;;21.40;99.90;;;;;;4860235;29;20041;-83
2023/06/29 09:06:55;;;;;;;30.27;22.38;;;21.50;99.90;;;;;;4859266;29;20446;-83
2023/06/29 09:09:22;;;;;;;33.90;24.55;;;21.50;99.90;;;;;;4860357;29;20490;-83
2023/06/29 09:11:48;;;;;;;32.03;25.08;;;21.50;99.90;;;;;;4860301;29;20112;-83
2023/06/29 09:14:13;;;;;;;33.58;24.13;;;21.50;99.90;;;;;;4859876;29;20170;-83
2023/06/29 09:16:53;;;;;;;36.78;25.15;;;21.40;99.90;;;;;;4860190;29;20025;-83
2023/06/29 09:19:19;;;;;;;35.00;26.52;;;21.40;99.90;;;;;;4859356;29;20093;-83
2023/06/29 09:21:47;;;;;;;33.50;24.20;;;21.40;99.90;;;;;;4859733;29;20398;-83
2023/06/29 09:24:14;;;;;;;36.00;26.23;;;21.40;99.90;;;;;;4859989;29;20117;-83
2023/06/29 09:26:40;;;;;;;30.48;23.05;;;21.50;99.90;;;;;;4859734;29;20061;-83
2023/06/29 09:29:05;;;;;;;33.95;25.17;;;21.50;99.90;;;;;;4860061;29;20060;-83
2023/06/29 09:31:35;;;;;;;33.25;23.73;;;21.40;99.90;;;;;;4860189;29;20025;-83
2023/06/29 09:34:17;;;;;;;35.75;23.50;;;21.50;99.90;;;;;;4859313;29;20033;-83
2023/06/29 09:36:43;;;;;;;34.10;24.98;;;21.50;99.90;;;;;;4860298;29;20069;-83
2023/06/29 09:39:09;;;;;;;32.45;23.55;;;21.50;99.90;;;;;;4859924;29;20509;-83
2023/06/29 09:41:47;;;;;;;38.65;25.85;;;21.60;99.90;;;;;;4859360;29;20041;-83
2023/06/29 09:44:16;;;;;;;36.45;27.27;;;21.60;99.90;;;;;;4859629;29;20380;-83
2023/06/29 09:46:41;;;;;;;33.70;25.42;;;21.50;99.90;;;;;;4859798;29;20033;-83
2023/06/29 09:49:10;;;;;;;33.20;25.70;;;21.50;99.90;;;;;;4859114;29;20034;-83
2023/06/29 09:51:36;;;;;;;29.45;24.08;;;21.50;99.90;;;;;;4859869;29;20025;-83
2023/06/29 09:54:05;;;;;;;39.65;26.63;;;21.50;99.90;;;;;;4859202;29;20029;-83
2023/06/29 09:56:33;;;;;;;38.38;25.63;;;21.50;99.90;;;;;;4859730;29;20112;-83
2023/06/29 09:59:01;;;;;;;34.65;25.30;;;21.50;99.90;;;;;;4859491;29;20099;-83
2023/06/29 10:01:28;;;;;;;31.23;23.60;;;21.60;99.90;;;;;;4859020;29;20034;-83
2023/06/29 10:03:55;;;;;;;30.95;23.27;;;21.60;99.90;;;;;;4859556;29;20120;-83
2023/06/29 10:06:43;;;;;;;30.85;23.65;;;21.80;99.90;;;;;;4859497;29;20375;-83
2023/06/29 10:09:11;;;;;;;32.10;24.40;;;21.80;99.90;;;;;;4861655;29;20448;-83
2023/06/29 10:11:39;;;;;;;35.88;24.48;;;21.80;99.90;;;;;;4863228;29;20040;-83
2023/06/29 10:14:07;;;;;;;30.85;23.17;;;21.80;99.90;;;;;;4862731;29;20154;-83
2023/06/29 10:16:40;;;;;;;33.33;24.48;;;21.80;99.90;;;;;;4862748;29;20033;-83
2023/06/29 10:19:16;;;;;;;34.00;24.48;;;21.80;99.90;;;;;;4863085;29;20124;-83
2023/06/29 10:21:43;;;;;;;24.00;20.83;;;21.80;99.90;;;;;;4863287;29;20041;-83
2023/06/29 10:24:13;;;;;;;24.77;20.67;;;21.70;99.90;;;;;;4861939;29;20056;-83
2023/06/29 10:26:40;;;;;;;37.40;23.10;;;21.70;99.90;;;;;;4863006;29;20025;-83
2023/06/29 10:29:07;;;;;;;30.85;21.77;;;21.80;99.90;;;;;;4862437;29;20034;-83
2023/06/29 10:31:33;;;;;;;28.00;22.38;;;21.80;99.90;;;;;;4862262;29;20033;-83
2023/06/29 10:34:05;;;;;;;27.98;20.67;;;21.70;99.90;;;;;;4862568;29;20029;-83
2023/06/29 10:36:45;;;;;;;30.38;21.02;;;21.90;99.90;;;;;;4862134;29;20025;-83
2023/06/29 10:39:41;;;;;;;26.08;19.85;;;21.90;99.90;;;;;;4863020;29;20089;-83
2023/06/29 10:42:22;;;;;;;26.80;20.20;;;22.00;99.90;;;;;;4862534;29;20459;-83
2023/06/29 10:44:48;;;;;;;27.02;19.38;;;22.00;99.90;;;;;;4861623;29;20045;-83
2023/06/29 10:47:39;;;;;;;23.55;18.25;;;22.00;99.90;;;;;;4862513;29;20033;-83
2023/06/29 10:50:11;;;;;;;26.50;19.33;;;22.00;99.90;;;;;;4862567;29;20042;-83
2023/06/29 10:52:38;;;;;;;25.27;20.00;;;22.10;99.90;;;;;;4861894;29;20030;-82
2023/06/29 10:55:19;;;;;;;28.10;20.15;;;22.00;99.90;;;;;;4862261;29;20056;-83
2023/06/29 10:57:46;;;;;;;25.05;19.25;;;22.00;99.90;;;;;;4861652;29;20089;-83
2023/06/29 11:00:14;;;;;;;27.52;19.35;;;21.90;99.90;;;;;;4862305;29;20719;-83
2023/06/29 11:02:41;;;;;;;23.52;17.42;;;21.90;99.90;;;;;;4862269;29;20440;-83
2023/06/29 11:05:10;;;;;;;18.15;15.85;;;21.80;99.90;;;;;;4861693;29;20060;-83
2023/06/29 11:07:37;;;;;;;22.77;16.13;;;21.80;99.90;;;;;;4862309;29;20491;-83
2023/06/29 11:10:04;;;;;;;19.13;14.13;;;21.70;99.90;;;;;;4861908;29;20157;-83
2023/06/29 11:12:29;;;;;;;20.92;15.90;;;21.80;99.90;;;;;;4861702;29;20025;-83
2023/06/29 11:14:55;;;;;;;25.45;16.40;;;21.80;99.90;;;;;;4862049;29;20525;-83
2023/06/29 11:17:22;;;;;;;23.88;15.93;;;21.90;99.90;;;;;;4861972;29;20083;-83
2023/06/29 11:19:49;;;;;;;20.45;16.13;;;21.90;99.90;;;;;;4860753;29;20026;-83
2023/06/29 11:22:18;;;;;;;16.02;13.95;;;21.90;99.90;;;;;;4862053;29;20034;-83
2023/06/29 11:24:44;;;;;;;15.20;13.20;;;21.80;99.90;;;;;;4861611;29;20077;-83
2023/06/29 11:27:10;;;;;;;17.85;14.45;;;22.00;99.90;;;;;;4861435;29;20390;-83
2023/06/29 11:29:36;;;;;;;16.73;13.30;;;22.00;99.90;;;;;;4861756;29;20041;-83
2023/06/29 11:32:02;;;;;;;16.08;14.10;;;22.00;99.90;;;;;;4861699;29;20029;-83
2023/06/29 11:34:27;;;;;;;20.90;15.10;;;22.00;99.90;;;;;;4861107;29;20029;-83
2023/06/29 11:36:55;;;;;;;17.38;13.95;;;22.10;99.90;;;;;;4861378;29;20053;-83
2023/06/29 11:39:21;;;;;;;17.60;13.60;;;22.20;99.90;;;;;;4861687;29;20380;-83
2023/06/29 11:41:47;;;;;;;18.75;14.73;;;22.20;99.90;;;;;;4860818;29;20040;-83
2023/06/29 11:44:13;;;;;;;21.38;14.20;;;22.40;99.90;;;;;;4861476;29;20094;-83
2023/06/29 11:46:39;;;;;;;23.90;15.25;;;22.20;99.90;;;;;;4861026;29;20048;-83
2023/06/29 11:49:05;;;;;;;18.25;13.73;;;22.20;99.90;;;;;;4861320;29;20033;-83
2023/06/29 11:51:38;;;;;;;23.40;15.80;;;22.20;99.90;;;;;;4861508;29;20033;-83
2023/06/29 11:54:05;;;;;;;16.60;14.23;;;22.20;99.90;;;;;;4860693;29;20026;-83
2023/06/29 11:56:36;;;;;;;14.68;12.15;;;22.20;99.90;;;;;;4861185;29;20068;-83
2023/06/29 11:59:10;;;;;;;13.50;11.90;;;22.20;99.90;;;;;;4861103;29;20042;-83
2023/06/29 12:01:38;;;;;;;14.40;12.10;;;22.20;99.90;;;;;;4860712;29;20381;-83
2023/06/29 12:04:08;;;;;;;15.93;13.82;;;22.20;99.90;;;;;;4860944;29;20037;-83
2023/06/29 12:06:35;;;;;;;14.85;13.18;;;22.30;99.90;;;;;;4860958;29;20072;-83
2023/06/29 12:09:09;;;;;;;18.95;13.27;;;22.30;99.90;;;;;;4860218;29;20038;-83
2023/06/29 12:11:34;;;;;;;20.10;13.80;;;22.20;99.90;;;;;;4861604;29;20033;-83
2023/06/29 12:14:02;;;;;;;19.08;14.43;;;22.10;99.90;;;;;;4860701;29;20120;-83
2023/06/29 12:16:27;;;;;;;19.20;15.45;;;22.20;99.90;;;;;;4860269;29;20387;-83
2023/06/29 12:18:53;;;;;;;24.17;15.48;;;22.10;99.90;;;;;;4860652;29;20033;-83
2023/06/29 12:21:20;;;;;;;23.95;15.55;;;22.10;99.90;;;;;;4860973;29;20034;-83
2023/06/29 12:24:02;;;;;;;23.30;14.93;;;22.90;99.90;;;;;;4852983;29;20375;-83
2023/06/29 12:26:28;;;;;;;21.45;15.88;;;22.10;99.90;;;;;;4861280;29;20081;-83